Date,TemperatureHighF,TemperatureAvgF,TemperatureLowF,DewpointHighF,DewpointAvgF,DewpointLowF,HumidityHigh,HumidityAvg,HumidityLow,PressureMaxIn,PressureMinIn,WindSpeedMaxMPH,WindSpeedAvgMPH,GustSpeedMaxMPH,PrecipitationSumIn
2013-9-1,91.6,78.0,69.8,65.4,60.3,50.8,83,58,27,29.94,29.85,26,12,28,0.00
2013-9-2,96.1,80.3,68.4,62.6,55.4,48.7,74,46,24,29.95,29.80,27,8,33,0.00
2013-9-3,95.4,81.3,72.3,54.8,51.3,47.5,52,36,23,29.92,29.81,26,6,31,0.00
2013-9-4,97.3,81.4,71.1,56.8,51.7,46.0,52,37,18,29.97,29.82,21,6,43,0.00
2013-9-5,100.2,83.4,72.5,55.7,49.5,42.0,52,32,18,29.92,29.81,26,6,31,0.00
2013-9-6,99.9,84.1,72.0,49.7,44.1,39.5,36,25,16,29.91,29.78,25,7,29,0.00
2013-9-7,101.0,83.8,73.3,44.2,39.7,34.7,30,22,12,29.90,29.78,22,6,26,0.00
2013-9-8,98.5,82.2,72.8,42.9,37.7,31.9,29,21,12,29.87,29.72,20,7,26,0.00
2013-9-9,97.5,79.0,70.9,49.2,43.8,35.6,45,30,14,29.82,29.67,25,8,31,0.00
2013-9-10,87.0,73.6,65.5,45.4,39.0,35.0,48,29,18,29.90,29.71,28,15,32,0.00
2013-9-11,86.5,72.6,63.7,49.5,42.9,34.8,51,36,20,29.98,29.88,26,14,30,0.00
2013-9-12,90.7,76.1,63.2,44.8,33.7,21.7,36,23,11,29.99,29.83,22,10,28,0.00
2013-9-13,96.6,79.2,67.3,47.2,39.3,27.8,33,24,15,29.88,29.68,18,5,24,0.00
2013-9-14,101.2,82.0,68.9,46.7,42.0,34.4,39,26,13,29.77,29.63,21,6,24,0.00
2013-9-15,98.7,84.0,71.6,43.8,36.6,28.6,31,19,12,29.78,29.67,28,8,30,0.00
2013-9-16,97.1,79.7,69.4,40.5,35.8,30.4,28,21,12,29.85,29.75,19,6,22,0.00
2013-9-17,90.1,73.6,63.7,42.2,31.6,16.3,43,23,7,29.82,29.68,25,10,28,0.00
2013-9-18,87.2,69.4,57.3,52.5,39.0,25.2,58,36,12,29.85,29.73,17,5,19,0.00
2013-9-19,90.7,74.6,64.0,49.7,33.4,22.9,43,24,9,29.90,29.75,15,6,20,0.00
2013-9-20,84.1,71.5,57.8,55.9,41.7,25.5,88,39,16,29.86,29.75,29,11,39,0.00
2013-9-21,76.1,61.6,53.9,53.7,49.1,38.1,96,67,28,29.94,29.80,29,13,37,0.00
2013-9-22,77.9,60.2,49.1,49.2,37.5,30.3,85,47,18,29.98,29.84,21,5,29,0.00
2013-9-23,85.5,66.2,52.8,39.6,34.2,26.8,58,34,14,30.07,29.94,16,6,16,0.00
2013-9-24,85.9,73.4,64.5,34.1,28.9,24.7,26,20,11,29.97,29.81,28,11,30,0.00
2013-9-25,76.8,63.4,52.8,52.2,39.3,22.8,85,45,18,29.83,29.66,36,13,37,0.00
2013-9-26,71.5,55.9,47.1,44.1,30.4,20.2,75,41,15,30.02,29.74,16,7,24,0.00
2013-9-27,69.3,57.8,48.0,26.3,20.4,13.0,39,25,13,30.17,30.00,24,6,24,0.00
2013-9-28,80.9,63.5,48.9,24.7,20.7,15.9,33,21,10,30.19,30.08,13,4,14,0.00
2013-9-29,87.4,71.9,59.9,29.9,18.9,7.4,25,14,7,30.13,30.00,19,8,21,0.00
2013-9-30,91.4,72.2,60.7,35.4,29.0,21.9,28,21,9,30.04,29.87,16,6,22,0.00